createdAt,value
2019-01-02T00:00:32.745Z,45.75
2019-01-02T00:03:05.328Z,45.25
2019-01-02T00:05:37.993Z,45.06
2019-01-02T00:08:10.434Z,45.06
2019-01-02T00:10:43.107Z,44.72
2019-01-02T00:13:15.390Z,44.89
2019-01-02T00:15:47.592Z,45.68
2019-01-02T00:18:19.804Z,44.34
2019-01-02T00:20:51.892Z,45.52
2019-01-02T00:23:24.337Z,45.28
2019-01-02T00:25:56.810Z,45.05
2019-01-02T00:28:29.019Z,44.92
2019-01-02T00:31:00.818Z,44.89
2019-01-02T00:33:33.113Z,44.20
2019-01-02T00:36:05.819Z,44.67
2019-01-02T00:38:37.851Z,44.45
2019-01-02T00:41:10.307Z,44.48
2019-01-02T00:43:43.198Z,44.14
2019-01-02T00:46:15.895Z,43.57
2019-01-02T00:48:47.844Z,43.57
2019-01-02T00:51:19.831Z,43.21
2019-01-02T00:56:38.447Z,44.67
2019-01-02T00:59:10.867Z,45.15
2019-01-02T01:01:43.351Z,44.96
2019-01-02T01:04:14.961Z,45.04
2019-01-02T01:06:47.325Z,44.44
2019-01-02T01:09:19.911Z,44.43
2019-01-02T01:11:51.905Z,44.43
2019-01-02T01:14:25.041Z,44.78
2019-01-02T01:16:57.289Z,44.49
2019-01-02T01:19:29.926Z,44.55
2019-01-02T01:22:01.889Z,44.01
2019-01-02T01:24:34.364Z,44.01
2019-01-02T01:27:07.001Z,44.72
2019-01-02T01:29:39.122Z,43.95
2019-01-02T01:32:11.474Z,44.60
2019-01-02T01:34:44.334Z,42.85
2019-01-02T01:37:19.610Z,44.46
2019-01-02T01:39:50.896Z,44.30
2019-01-02T01:42:24.330Z,44.00
2019-01-02T01:44:57.526Z,43.83
2019-01-02T01:47:29.928Z,44.46
2019-01-02T01:50:02.342Z,44.52
2019-01-02T01:52:35.112Z,43.16
2019-01-02T01:55:08.358Z,43.40
2019-01-02T01:57:41.026Z,44.66
2019-01-02T02:00:21.018Z,43.90
2019-01-02T02:02:54.064Z,44.70
2019-01-02T02:05:27.068Z,44.36
2019-01-02T02:07:59.088Z,44.36
2019-01-02T02:10:31.644Z,43.53
2019-01-02T02:13:04.136Z,44.17
2019-01-02T02:15:37.019Z,42.26
2019-01-02T02:18:09.096Z,43.61
2019-01-02T02:20:42.047Z,43.77
2019-01-02T02:23:14.316Z,43.63
2019-01-02T02:25:45.970Z,43.07
2019-01-02T02:28:17.930Z,43.71
2019-01-02T02:30:50.107Z,43.65
2019-01-02T02:33:22.627Z,44.54
2019-01-02T02:35:55.813Z,44.12
2019-01-02T02:38:28.382Z,43.89
2019-01-02T02:40:59.782Z,43.83
2019-01-02T02:43:32.401Z,43.67
2019-01-02T02:46:04.843Z,43.89
2019-01-02T02:48:37.833Z,44.51
2019-01-02T02:51:11.014Z,44.29
2019-01-02T02:53:43.921Z,44.74
2019-01-02T02:56:16.897Z,44.25
2019-01-02T02:58:49.387Z,44.90
2019-01-02T03:01:22.209Z,43.89
2019-01-02T03:03:54.417Z,43.89
2019-01-02T03:06:26.738Z,43.41
2019-01-02T03:08:59.382Z,44.02
2019-01-02T03:11:31.404Z,44.42
2019-01-02T03:14:02.678Z,44.25
2019-01-02T03:16:36.319Z,44.72
2019-01-02T03:19:07.737Z,44.48
2019-01-02T03:21:40.316Z,44.58
2019-01-02T03:24:12.806Z,44.66
2019-01-02T03:26:44.875Z,44.07
2019-01-02T03:29:17.096Z,44.27
2019-01-02T03:31:49.566Z,44.28
2019-01-02T03:34:22.087Z,44.47
2019-01-02T03:36:54.313Z,44.79
2019-01-02T03:39:26.953Z,44.64
2019-01-02T03:41:59.339Z,43.83
2019-01-02T03:44:32.016Z,44.83
2019-01-02T03:47:04.623Z,45.10
2019-01-02T03:49:36.846Z,45.31
2019-01-02T03:52:09.267Z,45.31
2019-01-02T03:54:41.913Z,45.26
2019-01-02T03:57:14.069Z,44.60
2019-01-02T03:59:46.809Z,44.64
2019-01-02T04:02:18.869Z,44.55
2019-01-02T04:04:51.439Z,43.15
2019-01-02T04:07:24.327Z,44.54
2019-01-02T04:09:56.865Z,44.98
2019-01-02T04:12:28.929Z,44.68
2019-01-02T04:15:01.512Z,44.47
2019-01-02T04:17:33.879Z,44.34
2019-01-02T04:20:06.101Z,44.34
2019-01-02T04:22:38.135Z,43.94
2019-01-02T04:25:10.504Z,44.37
2019-01-02T04:27:43.322Z,44.94
2019-01-02T04:30:17.331Z,44.94
2019-01-02T04:32:49.874Z,44.91
2019-01-02T04:35:21.934Z,44.70
2019-01-02T04:37:54.145Z,44.88
2019-01-02T04:40:27.067Z,45.06
2019-01-02T04:42:59.026Z,44.48
2019-01-02T04:45:31.633Z,45.06
2019-01-02T04:48:03.861Z,44.60
2019-01-02T04:50:36.376Z,44.60
2019-01-02T04:53:08.869Z,45.11
2019-01-02T04:55:40.855Z,44.66
2019-01-02T04:58:13.064Z,44.05
2019-01-02T05:00:45.463Z,44.28
2019-01-02T05:03:17.841Z,43.43
2019-01-02T05:05:50.479Z,45.17
2019-01-02T05:08:22.886Z,45.11
2019-01-02T05:10:55.868Z,44.93
2019-01-02T05:13:28.440Z,44.92
2019-01-02T05:16:01.037Z,44.97
2019-01-02T05:18:33.517Z,45.01
2019-01-02T05:21:06.401Z,44.75
2019-01-02T05:23:38.866Z,45.02
2019-01-02T05:26:11.005Z,45.12
2019-01-02T05:28:43.866Z,44.90
2019-01-02T05:31:16.151Z,44.74
2019-01-02T05:33:48.374Z,43.97
2019-01-02T05:36:21.276Z,44.24
2019-01-02T05:38:53.631Z,44.57
2019-01-02T05:41:24.975Z,44.64
2019-01-02T05:43:57.005Z,44.42
2019-01-02T05:46:29.420Z,45.07
2019-01-02T05:49:01.893Z,44.29
2019-01-02T05:51:34.823Z,43.45
2019-01-02T05:54:07.352Z,44.33
2019-01-02T05:56:39.979Z,44.55
2019-01-02T05:59:11.912Z,44.12
2019-01-02T06:01:44.322Z,44.70
2019-01-02T06:04:16.646Z,44.31
2019-01-02T06:06:48.913Z,44.46
2019-01-02T06:09:21.809Z,44.46
2019-01-02T06:11:54.344Z,43.95
2019-01-02T06:14:26.861Z,43.82
2019-01-02T06:16:59.357Z,44.20
2019-01-02T06:19:31.922Z,45.04
2019-01-02T06:22:04.590Z,43.64
2019-01-02T06:24:36.866Z,45.23
2019-01-02T06:27:08.877Z,45.23
2019-01-02T06:29:41.357Z,43.48
2019-01-02T06:32:13.875Z,43.35
2019-01-02T06:34:45.968Z,44.41
2019-01-02T06:37:17.909Z,44.85
2019-01-02T06:39:49.907Z,43.57
2019-01-02T06:42:22.043Z,44.45
2019-01-02T06:44:54.859Z,44.56
2019-01-02T06:47:26.902Z,44.79
2019-01-02T06:49:58.857Z,43.67
2019-01-02T06:52:30.926Z,43.96
2019-01-02T06:55:03.151Z,44.73
2019-01-02T06:57:35.409Z,44.20
2019-01-02T07:00:13.376Z,43.02
2019-01-02T07:02:46.083Z,43.62
2019-01-02T07:05:18.110Z,42.56
2019-01-02T07:07:50.703Z,44.39
2019-01-02T07:10:23.117Z,43.63
2019-01-02T07:12:55.860Z,43.63
2019-01-02T07:15:28.316Z,44.45
2019-01-02T07:18:01.080Z,43.91
2019-01-02T07:20:33.593Z,45.03
2019-01-02T07:23:05.855Z,44.50
2019-01-02T07:25:37.919Z,44.50
2019-01-02T07:28:10.034Z,44.97
2019-01-02T07:30:42.343Z,43.99
2019-01-02T07:33:15.347Z,43.54
2019-01-02T07:37:08.534Z,43.70
2019-01-02T07:41:11.876Z,43.88
2019-01-02T07:45:05.918Z,43.72
2019-01-02T07:48:28.015Z,41.90
2019-01-02T07:52:44.888Z,43.02
2019-01-02T07:56:21.880Z,43.61
2019-01-02T08:00:12.031Z,42.69
2019-01-02T08:03:43.814Z,43.73
2019-01-02T08:07:39.135Z,42.88
2019-01-02T08:11:36.629Z,43.98
2019-01-02T08:15:44.268Z,42.25
2019-01-02T08:19:41.040Z,42.25
2019-01-02T08:23:22.852Z,43.59
2019-01-02T08:27:34.075Z,42.98
2019-01-02T08:31:14.964Z,40.96
2019-01-02T08:35:04.795Z,39.61
2019-01-02T08:38:51.473Z,42.05
2019-01-02T08:42:56.615Z,40.10
2019-01-02T08:46:52.012Z,42.03
2019-01-02T08:50:39.874Z,42.03
2019-01-02T08:54:24.872Z,40.23
2019-01-02T08:58:09.913Z,42.84
2019-01-02T09:02:05.301Z,44.35
2019-01-02T09:05:52.568Z,44.79
2019-01-02T09:09:38.602Z,43.89
2019-01-02T09:13:01.322Z,44.18
2019-01-02T09:16:28.332Z,44.18
2019-01-02T09:19:56.045Z,43.39
2019-01-02T09:24:05.346Z,44.70
2019-01-02T09:27:34.999Z,44.49
2019-01-02T09:31:10.744Z,43.82
2019-01-02T09:34:59.846Z,44.83
2019-01-02T09:39:15.015Z,43.75
2019-01-02T09:42:50.915Z,42.21
2019-01-02T09:46:39.893Z,43.39
2019-01-02T09:50:05.475Z,43.99
2019-01-02T09:53:53.411Z,43.96
2019-01-02T09:58:09.661Z,43.96
2019-01-02T10:01:31.901Z,44.00
2019-01-02T10:05:27.141Z,44.00
2019-01-02T10:09:27.667Z,43.29
2019-01-02T10:13:11.862Z,42.77
2019-01-02T10:17:14.611Z,42.77
2019-01-02T10:20:56.300Z,43.27
2019-01-02T10:24:19.056Z,43.05
2019-01-02T10:28:32.273Z,43.76
2019-01-02T10:31:52.334Z,43.59
2019-01-02T10:35:54.315Z,44.03
2019-01-02T10:39:59.424Z,42.48
2019-01-02T10:43:36.505Z,43.96
2019-01-02T10:47:12.832Z,42.46
2019-01-02T10:51:18.799Z,42.96
2019-01-02T10:55:19.460Z,43.87
2019-01-02T10:58:59.931Z,44.01
2019-01-02T11:02:36.101Z,43.68
2019-01-02T11:06:35.001Z,42.18
2019-01-02T11:10:01.032Z,43.46
2019-01-02T11:14:13.490Z,43.40
2019-01-02T11:17:46.878Z,42.97
2019-01-02T11:21:32.877Z,43.60
2019-01-02T11:25:35.053Z,42.55
2019-01-02T11:29:19.808Z,42.37
2019-01-02T11:33:30.332Z,43.48
2019-01-02T11:37:38.462Z,41.73
2019-01-02T11:40:52.796Z,41.34
2019-01-02T11:45:12.904Z,42.20
2019-01-02T11:47:44.816Z,42.76
2019-01-02T11:50:18.907Z,41.76
2019-01-02T11:52:50.888Z,42.37
2019-01-02T11:55:23.319Z,40.18
2019-01-02T11:57:55.903Z,42.65
2019-01-02T12:00:27.864Z,42.21
2019-01-02T12:02:59.925Z,40.59
2019-01-02T12:05:31.903Z,41.58
2019-01-02T12:08:04.067Z,41.05
2019-01-02T12:10:36.094Z,42.30
2019-01-02T12:13:08.460Z,41.16
2019-01-02T12:15:40.817Z,41.30
2019-01-02T12:18:13.001Z,38.16
2019-01-02T12:20:45.530Z,41.58
2019-01-02T12:23:17.903Z,40.96
2019-01-02T12:25:49.856Z,41.34
2019-01-02T12:28:21.984Z,42.08
2019-01-02T12:30:54.264Z,39.79
2019-01-02T12:33:27.083Z,39.16
2019-01-02T12:35:59.705Z,38.82
2019-01-02T12:38:30.792Z,42.29
2019-01-02T12:41:03.375Z,40.80
2019-01-02T12:43:36.355Z,41.63
2019-01-02T12:46:08.453Z,42.03
2019-01-02T12:48:40.926Z,40.23
2019-01-02T12:51:13.321Z,40.62
2019-01-02T12:53:45.314Z,40.14
2019-01-02T12:56:18.003Z,40.37
2019-01-02T12:58:49.979Z,40.72
2019-01-02T13:01:56.283Z,40.60
2019-01-02T13:05:07.471Z,41.23
2019-01-02T13:09:27.877Z,40.60
2019-01-02T13:13:12.098Z,40.60
2019-01-02T13:16:57.939Z,38.28
2019-01-02T13:20:42.025Z,37.07
2019-01-02T13:24:21.465Z,37.66
2019-01-02T13:28:12.316Z,41.65
2019-01-02T13:31:56.906Z,41.65
2019-01-02T13:35:39.960Z,40.35
2019-01-02T13:39:17.504Z,39.73
2019-01-02T13:43:00.370Z,38.79
2019-01-02T13:46:21.361Z,40.01
2019-01-02T13:50:28.107Z,40.26
2019-01-02T13:53:02.914Z,41.09
2019-01-02T13:55:35.034Z,37.31
2019-01-02T13:58:06.915Z,41.10
2019-01-02T14:00:38.890Z,38.97
2019-01-02T14:03:10.840Z,39.51
2019-01-02T14:05:49.569Z,38.62
2019-01-02T14:08:22.012Z,42.04
2019-01-02T14:10:53.861Z,42.04
2019-01-02T14:13:26.321Z,36.75
2019-01-02T14:15:58.505Z,37.90
2019-01-02T14:18:30.978Z,42.23
2019-01-02T14:21:03.409Z,41.78
2019-01-02T14:23:35.872Z,41.12
2019-01-02T14:26:07.984Z,40.18
2019-01-02T14:28:39.869Z,40.56
2019-01-02T14:31:11.879Z,40.17
2019-01-02T14:33:43.830Z,41.03
2019-01-02T14:36:15.843Z,41.01
2019-01-02T14:38:47.788Z,41.80
2019-01-02T14:41:19.828Z,41.26
2019-01-02T14:43:52.318Z,37.98
2019-01-02T14:46:24.881Z,39.25
2019-01-02T14:48:56.981Z,42.16
2019-01-02T14:51:29.071Z,40.10
2019-01-02T14:54:01.383Z,39.82
2019-01-02T14:56:33.482Z,38.99
2019-01-02T14:59:05.825Z,41.56
2019-01-02T15:01:37.904Z,41.19
2019-01-02T15:04:09.816Z,35.56
2019-01-02T15:06:41.921Z,32.30
2019-01-02T15:09:13.896Z,32.52
2019-01-02T15:11:45.855Z,31.33
2019-01-02T15:14:17.927Z,30.83
2019-01-02T15:16:50.391Z,30.77
2019-01-02T15:19:22.877Z,30.30
2019-01-02T15:21:54.860Z,29.83
2019-01-02T15:24:27.334Z,29.48
2019-01-02T15:26:59.589Z,29.69
2019-01-02T15:29:31.866Z,30.53
2019-01-02T15:32:03.979Z,30.53
2019-01-02T15:34:36.097Z,30.36
2019-01-02T15:37:08.329Z,30.41
2019-01-02T15:39:40.639Z,30.43
2019-01-02T15:42:12.897Z,30.86
2019-01-02T15:44:44.879Z,30.86
2019-01-02T15:47:17.367Z,31.84
2019-01-02T15:49:49.464Z,31.36
2019-01-02T15:52:21.796Z,31.35
2019-01-02T15:54:53.358Z,31.19
2019-01-02T15:57:25.410Z,31.57
2019-01-02T15:59:57.573Z,32.27
2019-01-02T16:02:30.005Z,32.34
2019-01-02T16:05:02.456Z,32.08
2019-01-02T16:07:35.326Z,33.22
2019-01-02T16:10:09.367Z,33.25
2019-01-02T16:12:46.642Z,34.16
2019-01-02T16:15:15.915Z,32.67
2019-01-02T16:17:48.394Z,32.67
2019-01-02T16:20:20.828Z,34.39
2019-01-02T16:22:52.987Z,34.72
2019-01-02T16:25:24.899Z,36.78
2019-01-02T16:27:57.331Z,37.90
2019-01-02T16:30:29.440Z,39.54
2019-01-02T16:33:01.616Z,38.24
2019-01-02T16:35:33.889Z,38.85
2019-01-02T16:38:05.839Z,38.85
2019-01-02T16:40:38.422Z,39.02
2019-01-02T16:43:10.419Z,38.93
2019-01-02T16:45:42.452Z,39.85
2019-01-02T16:48:14.926Z,39.46
2019-01-02T16:50:46.911Z,40.51
2019-01-02T16:53:18.847Z,40.54
2019-01-02T16:55:50.839Z,40.46
2019-01-02T16:58:23.548Z,39.89
2019-01-02T17:00:55.570Z,39.94
2019-01-02T17:03:28.010Z,37.79
2019-01-02T17:06:01.636Z,37.79
2019-01-02T17:08:33.380Z,38.72
2019-01-02T17:11:05.543Z,36.12
2019-01-02T17:13:37.835Z,33.13
2019-01-02T17:16:10.321Z,33.13
2019-01-02T17:18:42.382Z,32.68
2019-01-02T17:21:14.764Z,33.05
2019-01-02T17:23:45.793Z,32.36
2019-01-02T17:26:18.327Z,33.61
2019-01-02T17:28:50.851Z,32.24
2019-01-02T17:31:23.324Z,33.51
2019-01-02T17:33:55.492Z,34.28
2019-01-02T17:36:27.671Z,32.98
2019-01-02T17:38:59.936Z,33.32
2019-01-02T17:41:31.834Z,33.32
2019-01-02T17:44:03.875Z,34.80
2019-01-02T17:46:35.797Z,36.00
2019-01-02T17:49:07.893Z,37.57
2019-01-02T17:51:39.860Z,35.40
2019-01-02T17:54:12.411Z,38.28
2019-01-02T17:56:44.816Z,36.91
2019-01-02T17:59:16.886Z,35.86
2019-01-02T18:01:48.975Z,37.98
2019-01-02T18:04:21.329Z,35.65
2019-01-02T18:06:53.484Z,38.21
2019-01-02T18:09:26.038Z,39.04
2019-01-02T18:11:58.334Z,36.90
2019-01-02T18:14:30.403Z,36.80
2019-01-02T18:17:02.468Z,38.48
2019-01-02T18:19:34.536Z,38.55
2019-01-02T18:22:06.854Z,35.62
2019-01-02T18:24:39.397Z,35.16
2019-01-02T18:27:11.663Z,32.33
2019-01-02T18:29:43.936Z,30.44
2019-01-02T18:32:15.860Z,30.44
2019-01-02T18:34:48.031Z,30.30
2019-01-02T18:37:21.022Z,30.27
2019-01-02T18:39:52.961Z,30.04
2019-01-02T18:42:24.870Z,30.59
2019-01-02T18:44:57.331Z,30.64
2019-01-02T18:47:29.993Z,31.12
2019-01-02T18:50:02.102Z,31.47
2019-01-02T18:52:34.119Z,31.21
2019-01-02T18:55:06.645Z,32.29
2019-01-02T18:57:39.317Z,31.69
2019-01-02T19:00:14.865Z,31.69
2019-01-02T19:02:47.855Z,33.63
2019-01-02T19:05:20.332Z,34.83
2019-01-02T19:07:52.875Z,36.64
2019-01-02T19:10:24.880Z,36.29
2019-01-02T19:12:57.461Z,38.52
2019-01-02T19:15:29.938Z,37.03
2019-01-02T19:18:01.853Z,37.68
2019-01-02T19:20:34.377Z,37.92
2019-01-02T19:23:07.864Z,38.73
2019-01-02T19:25:40.354Z,39.11
2019-01-02T19:28:12.934Z,38.99
2019-01-02T19:30:45.096Z,39.65
2019-01-02T19:33:17.372Z,39.59
2019-01-02T19:35:50.008Z,39.58
2019-01-02T19:38:22.048Z,39.49
2019-01-02T19:40:53.838Z,38.62
2019-01-02T19:43:26.014Z,39.76
2019-01-02T19:45:58.867Z,39.01
2019-01-02T19:48:31.334Z,39.94
2019-01-02T19:51:03.886Z,39.24
2019-01-02T19:53:36.341Z,38.66
2019-01-02T19:56:08.831Z,37.66
2019-01-02T19:58:40.910Z,37.17
2019-01-02T20:01:13.035Z,37.09
2019-01-02T20:03:45.336Z,36.22
2019-01-02T20:06:17.707Z,37.02
2019-01-02T20:08:48.733Z,37.20
2019-01-02T20:11:19.775Z,37.62
2019-01-02T20:13:53.122Z,36.55
2019-01-02T20:16:25.326Z,38.33
2019-01-02T20:19:00.916Z,36.99
2019-01-02T20:21:33.322Z,39.62
2019-01-02T20:24:05.654Z,39.52
2019-01-02T20:26:37.831Z,38.85
2019-01-02T20:29:09.886Z,38.85
2019-01-02T20:31:41.991Z,38.20
2019-01-02T20:34:13.947Z,39.51
2019-01-02T20:36:45.870Z,39.40
2019-01-02T20:39:18.143Z,39.23
2019-01-02T20:41:50.294Z,39.42
2019-01-02T20:44:22.747Z,39.77
2019-01-02T20:46:54.867Z,39.29
2019-01-02T20:49:26.826Z,39.38
2019-01-02T20:51:59.075Z,39.69
2019-01-02T20:54:31.778Z,38.74
2019-01-02T20:57:03.990Z,39.56
2019-01-02T20:59:35.916Z,40.77
2019-01-02T21:02:07.886Z,40.12
2019-01-02T21:04:39.846Z,41.05
2019-01-02T21:07:11.887Z,40.14
2019-01-02T21:09:43.843Z,39.81
2019-01-02T21:12:16.041Z,40.27
2019-01-02T21:14:48.414Z,39.83
2019-01-02T21:17:20.702Z,40.43
2019-01-02T21:19:52.859Z,40.65
2019-01-02T21:22:25.327Z,40.84
2019-01-02T21:24:57.618Z,40.58
2019-01-02T21:27:29.898Z,40.94
2019-01-02T21:30:02.014Z,40.76
2019-01-02T21:32:34.098Z,40.78
2019-01-02T21:35:06.491Z,41.17
2019-01-02T21:37:38.815Z,40.81
2019-01-02T21:40:11.791Z,41.12
2019-01-02T21:42:44.035Z,41.48
2019-01-02T21:45:15.832Z,41.07
2019-01-02T21:47:48.316Z,41.23
2019-01-02T21:50:20.627Z,41.10
2019-01-02T21:52:52.814Z,40.99
2019-01-02T21:55:24.998Z,40.99
2019-01-02T21:57:56.982Z,40.70
2019-01-02T22:00:28.850Z,41.63
2019-01-02T22:03:00.810Z,40.98
2019-01-02T22:05:32.816Z,40.62
2019-01-02T22:08:05.083Z,40.18
2019-01-02T22:10:37.021Z,41.80
2019-01-02T22:13:09.293Z,40.71
2019-01-02T22:15:41.559Z,41.52
2019-01-02T22:18:13.865Z,40.65
2019-01-02T22:20:45.830Z,40.65
2019-01-02T22:23:17.857Z,41.54
2019-01-02T22:25:49.856Z,41.97
2019-01-02T22:28:21.951Z,41.30
2019-01-02T22:30:53.853Z,40.76
2019-01-02T22:33:25.859Z,41.31
2019-01-02T22:35:57.977Z,41.54
2019-01-02T22:38:29.889Z,42.11
2019-01-02T22:41:01.847Z,41.63
2019-01-02T22:43:33.920Z,41.50
2019-01-02T22:46:05.839Z,41.83
2019-01-02T22:48:37.980Z,41.69
2019-01-02T22:51:09.911Z,41.23
2019-01-02T22:53:42.822Z,42.24
2019-01-02T22:56:14.832Z,41.97
2019-01-02T22:58:46.966Z,41.12
2019-01-02T23:01:32.367Z,42.36
2019-01-02T23:04:15.094Z,41.06
2019-01-02T23:07:05.645Z,41.46
2019-01-02T23:10:05.503Z,42.22
2019-01-02T23:12:55.540Z,42.22
2019-01-02T23:16:01.321Z,42.14
2019-01-02T23:18:51.431Z,41.17
2019-01-02T23:21:40.347Z,42.25
2019-01-02T23:24:42.422Z,41.79
2019-01-02T23:27:42.540Z,41.75
2019-01-02T23:30:30.877Z,41.90
2019-01-02T23:33:20.362Z,42.06
2019-01-02T23:36:23.584Z,42.21
2019-01-02T23:39:11.710Z,41.70
2019-01-02T23:42:02.412Z,42.23
2019-01-02T23:45:03.087Z,41.84
2019-01-02T23:47:52.914Z,42.10
2019-01-02T23:50:42.800Z,42.17
2019-01-02T23:53:36.743Z,42.23
2019-01-02T23:56:30.530Z,42.18
2019-01-02T23:59:27.410Z,42.13
